<?xml version="1.0" encoding="UTF-8" standalone="no" ?>
<gpx xmlns="http://www.topografix.com/GPX/1/1" xmlns:xsi="http://www.w3.org/2001/XMLSchema-instance" xsi:schemaLocation="http://www.topografix.com/GPX/1/1 http://www.topografix.com/GPX/1/1/gpx.xsd" version="1.1" creator="VisuGPX - https://www.visugpx.com">
  <metadata>
    <name>2024-09-09-46-le Montat</name>
    <desc><![CDATA[Randonnée de 10 km sans difficulté juste quelques sautes de terrain. Le circuit vous emmènera jusqu'à Granejouls en passant par le domaine de Lacoste et son lycée agricole. Ne pas manquer le circuit des planètes qui vous présentera les caractéristiques de notre système solaire  ]]></desc>
  </metadata>
  <trk>
    <name><![CDATA[le Montat 10kms 150m denivelé-19711796]]></name>
    <trkseg>
      <trkpt lat="44.37976" lon="1.44638">
        <ele>259</ele>
        <time>2024-08-27T16:26:50Z</time>
      </trkpt>
      <trkpt lat="44.37978" lon="1.44639">
        <ele>259</ele>
        <time>2024-08-27T16:26:53Z</time>
      </trkpt>
      <trkpt lat="44.37974" lon="1.44637">
        <ele>259</ele>
        <time>2024-08-27T16:26:59Z</time>
      </trkpt>
      <trkpt lat="44.37974" lon="1.44633">
        <ele>258</ele>
        <time>2024-08-27T16:27:02Z</time>
      </trkpt>
      <trkpt lat="44.37968" lon="1.4464">
        <ele>259</ele>
        <time>2024-08-27T16:27:13Z</time>
      </trkpt>
      <trkpt lat="44.37977" lon="1.44652">
        <ele>259</ele>
        <time>2024-08-27T16:27:29Z</time>
      </trkpt>
      <trkpt lat="44.37985" lon="1.44669">
        <ele>260</ele>
        <time>2024-08-27T16:27:49Z</time>
      </trkpt>
      <trkpt lat="44.37996" lon="1.44686">
        <ele>260</ele>
        <time>2024-08-27T16:28:11Z</time>
      </trkpt>
      <trkpt lat="44.38004" lon="1.4471">
        <ele>261</ele>
        <time>2024-08-27T16:28:36Z</time>
      </trkpt>
      <trkpt lat="44.38009" lon="1.44736">
        <ele>261</ele>
        <time>2024-08-27T16:29:02Z</time>
      </trkpt>
      <trkpt lat="44.38035" lon="1.44818">
        <ele>266</ele>
        <time>2024-08-27T16:30:27Z</time>
      </trkpt>
      <trkpt lat="44.38048" lon="1.44813">
        <ele>266</ele>
        <time>2024-08-27T16:30:45Z</time>
      </trkpt>
      <trkpt lat="44.3806" lon="1.44797">
        <ele>265</ele>
        <time>2024-08-27T16:31:07Z</time>
      </trkpt>
      <trkpt lat="44.38077" lon="1.4478">
        <ele>264</ele>
        <time>2024-08-27T16:31:35Z</time>
      </trkpt>
      <trkpt lat="44.38097" lon="1.44774">
        <ele>263</ele>
        <time>2024-08-27T16:32:02Z</time>
      </trkpt>
      <trkpt lat="44.38114" lon="1.44763">
        <ele>262</ele>
        <time>2024-08-27T16:32:27Z</time>
      </trkpt>
      <trkpt lat="44.38145" lon="1.44752">
        <ele>261</ele>
        <time>2024-08-27T16:33:10Z</time>
      </trkpt>
      <trkpt lat="44.38158" lon="1.44739">
        <ele>261</ele>
        <time>2024-08-27T16:33:31Z</time>
      </trkpt>
      <trkpt lat="44.38159" lon="1.44727">
        <ele>260</ele>
        <time>2024-08-27T16:33:43Z</time>
      </trkpt>
      <trkpt lat="44.38168" lon="1.44705">
        <ele>259</ele>
        <time>2024-08-27T16:34:07Z</time>
      </trkpt>
      <trkpt lat="44.38197" lon="1.44707">
        <ele>258</ele>
        <time>2024-08-27T16:34:46Z</time>
      </trkpt>
      <trkpt lat="44.38219" lon="1.44705">
        <ele>258</ele>
        <time>2024-08-27T16:35:15Z</time>
      </trkpt>
      <trkpt lat="44.38263" lon="1.44689">
        <ele>257</ele>
        <time>2024-08-27T16:36:16Z</time>
      </trkpt>
      <trkpt lat="44.3831" lon="1.4468">
        <ele>256</ele>
        <time>2024-08-27T16:37:19Z</time>
      </trkpt>
      <trkpt lat="44.38346" lon="1.4468">
        <ele>255</ele>
        <time>2024-08-27T16:38:07Z</time>
      </trkpt>
      <trkpt lat="44.38366" lon="1.44675">
        <ele>254</ele>
        <time>2024-08-27T16:38:34Z</time>
      </trkpt>
      <trkpt lat="44.3839" lon="1.44674">
        <ele>252</ele>
        <time>2024-08-27T16:39:06Z</time>
      </trkpt>
      <trkpt lat="44.38412" lon="1.44677">
        <ele>251</ele>
        <time>2024-08-27T16:39:36Z</time>
      </trkpt>
      <trkpt lat="44.38424" lon="1.44673">
        <ele>251</ele>
        <time>2024-08-27T16:39:52Z</time>
      </trkpt>
      <trkpt lat="44.38452" lon="1.44648">
        <ele>249</ele>
        <time>2024-08-27T16:40:37Z</time>
      </trkpt>
      <trkpt lat="44.38465" lon="1.4463">
        <ele>247</ele>
        <time>2024-08-27T16:41:01Z</time>
      </trkpt>
      <trkpt lat="44.38479" lon="1.44609">
        <ele>246</ele>
        <time>2024-08-27T16:41:29Z</time>
      </trkpt>
      <trkpt lat="44.38503" lon="1.44562">
        <ele>240</ele>
        <time>2024-08-27T16:42:24Z</time>
      </trkpt>
      <trkpt lat="44.38511" lon="1.44549">
        <ele>236</ele>
        <time>2024-08-27T16:42:40Z</time>
      </trkpt>
      <trkpt lat="44.38515" lon="1.44534">
        <ele>233</ele>
        <time>2024-08-27T16:42:55Z</time>
      </trkpt>
      <trkpt lat="44.38525" lon="1.44523">
        <ele>230</ele>
        <time>2024-08-27T16:43:12Z</time>
      </trkpt>
      <trkpt lat="44.38598" lon="1.44481">
        <ele>215</ele>
        <time>2024-08-27T16:44:58Z</time>
      </trkpt>
      <trkpt lat="44.38626" lon="1.44473">
        <ele>211</ele>
        <time>2024-08-27T16:45:36Z</time>
      </trkpt>
      <trkpt lat="44.38654" lon="1.4448">
        <ele>207</ele>
        <time>2024-08-27T16:46:14Z</time>
      </trkpt>
      <trkpt lat="44.38653" lon="1.4447">
        <ele>208</ele>
        <time>2024-08-27T16:46:23Z</time>
      </trkpt>
      <trkpt lat="44.38654" lon="1.44463">
        <ele>208</ele>
        <time>2024-08-27T16:46:30Z</time>
      </trkpt>
      <trkpt lat="44.3865" lon="1.44458">
        <ele>208</ele>
        <time>2024-08-27T16:46:37Z</time>
      </trkpt>
      <trkpt lat="44.38664" lon="1.44455">
        <ele>207</ele>
        <time>2024-08-27T16:46:56Z</time>
      </trkpt>
      <trkpt lat="44.38714" lon="1.44477">
        <ele>204</ele>
        <time>2024-08-27T16:48:06Z</time>
      </trkpt>
      <trkpt lat="44.38737" lon="1.44473">
        <ele>203</ele>
        <time>2024-08-27T16:48:37Z</time>
      </trkpt>
      <trkpt lat="44.38777" lon="1.44461">
        <ele>202</ele>
        <time>2024-08-27T16:49:32Z</time>
      </trkpt>
      <trkpt lat="44.38861" lon="1.44448">
        <ele>198</ele>
        <time>2024-08-27T16:51:24Z</time>
      </trkpt>
      <trkpt lat="44.38912" lon="1.44437">
        <ele>193</ele>
        <time>2024-08-27T16:52:33Z</time>
      </trkpt>
      <trkpt lat="44.38939" lon="1.44421">
        <ele>192</ele>
        <time>2024-08-27T16:53:12Z</time>
      </trkpt>
      <trkpt lat="44.38953" lon="1.44404">
        <ele>191</ele>
        <time>2024-08-27T16:53:37Z</time>
      </trkpt>
      <trkpt lat="44.38961" lon="1.44384">
        <ele>190</ele>
        <time>2024-08-27T16:53:59Z</time>
      </trkpt>
      <trkpt lat="44.3897" lon="1.44367">
        <ele>189</ele>
        <time>2024-08-27T16:54:19Z</time>
      </trkpt>
      <trkpt lat="44.38995" lon="1.44325">
        <ele>184</ele>
        <time>2024-08-27T16:55:11Z</time>
      </trkpt>
      <trkpt lat="44.38999" lon="1.44321">
        <ele>183</ele>
        <time>2024-08-27T16:55:18Z</time>
      </trkpt>
      <trkpt lat="44.39005" lon="1.44308">
        <ele>184</ele>
        <time>2024-08-27T16:55:33Z</time>
      </trkpt>
      <trkpt lat="44.39001" lon="1.4429">
        <ele>182</ele>
        <time>2024-08-27T16:55:51Z</time>
      </trkpt>
      <trkpt lat="44.38979" lon="1.44262">
        <ele>181</ele>
        <time>2024-08-27T16:56:30Z</time>
      </trkpt>
      <trkpt lat="44.38955" lon="1.44242">
        <ele>182</ele>
        <time>2024-08-27T16:57:07Z</time>
      </trkpt>
      <trkpt lat="44.38896" lon="1.44201">
        <ele>189</ele>
        <time>2024-08-27T16:58:35Z</time>
      </trkpt>
      <trkpt lat="44.38864" lon="1.44172">
        <ele>188</ele>
        <time>2024-08-27T16:59:26Z</time>
      </trkpt>
      <trkpt lat="44.3883" lon="1.44146">
        <ele>187</ele>
        <time>2024-08-27T17:00:18Z</time>
      </trkpt>
      <trkpt lat="44.38813" lon="1.44129">
        <ele>189</ele>
        <time>2024-08-27T17:00:46Z</time>
      </trkpt>
      <trkpt lat="44.38779" lon="1.44084">
        <ele>189</ele>
        <time>2024-08-27T17:01:48Z</time>
      </trkpt>
      <trkpt lat="44.38771" lon="1.44059">
        <ele>189</ele>
        <time>2024-08-27T17:02:14Z</time>
      </trkpt>
      <trkpt lat="44.38771" lon="1.44033">
        <ele>189</ele>
        <time>2024-08-27T17:02:39Z</time>
      </trkpt>
      <trkpt lat="44.38778" lon="1.43995">
        <ele>190</ele>
        <time>2024-08-27T17:03:17Z</time>
      </trkpt>
      <trkpt lat="44.38782" lon="1.43941">
        <ele>195</ele>
        <time>2024-08-27T17:04:08Z</time>
      </trkpt>
      <trkpt lat="44.38782" lon="1.43922">
        <ele>197</ele>
        <time>2024-08-27T17:04:27Z</time>
      </trkpt>
      <trkpt lat="44.38787" lon="1.43908">
        <ele>200</ele>
        <time>2024-08-27T17:04:41Z</time>
      </trkpt>
      <trkpt lat="44.38785" lon="1.43894">
        <ele>201</ele>
        <time>2024-08-27T17:04:55Z</time>
      </trkpt>
      <trkpt lat="44.38772" lon="1.43878">
        <ele>199</ele>
        <time>2024-08-27T17:05:18Z</time>
      </trkpt>
      <trkpt lat="44.38755" lon="1.43863">
        <ele>195</ele>
        <time>2024-08-27T17:05:45Z</time>
      </trkpt>
      <trkpt lat="44.38711" lon="1.43829">
        <ele>192</ele>
        <time>2024-08-27T17:06:52Z</time>
      </trkpt>
      <trkpt lat="44.38636" lon="1.43777">
        <ele>192</ele>
        <time>2024-08-27T17:08:44Z</time>
      </trkpt>
      <trkpt lat="44.3861" lon="1.43748">
        <ele>192</ele>
        <time>2024-08-27T17:09:28Z</time>
      </trkpt>
      <trkpt lat="44.38596" lon="1.43735">
        <ele>194</ele>
        <time>2024-08-27T17:09:51Z</time>
      </trkpt>
      <trkpt lat="44.38573" lon="1.43717">
        <ele>196</ele>
        <time>2024-08-27T17:10:26Z</time>
      </trkpt>
      <trkpt lat="44.38557" lon="1.43701">
        <ele>198</ele>
        <time>2024-08-27T17:10:52Z</time>
      </trkpt>
      <trkpt lat="44.38537" lon="1.43675">
        <ele>200</ele>
        <time>2024-08-27T17:11:28Z</time>
      </trkpt>
      <trkpt lat="44.38516" lon="1.4366">
        <ele>199</ele>
        <time>2024-08-27T17:12:00Z</time>
      </trkpt>
      <trkpt lat="44.38453" lon="1.43632">
        <ele>200</ele>
        <time>2024-08-27T17:13:28Z</time>
      </trkpt>
      <trkpt lat="44.38395" lon="1.43614">
        <ele>200</ele>
        <time>2024-08-27T17:14:47Z</time>
      </trkpt>
      <trkpt lat="44.38377" lon="1.43606">
        <ele>200</ele>
        <time>2024-08-27T17:15:13Z</time>
      </trkpt>
      <trkpt lat="44.3836" lon="1.43596">
        <ele>200</ele>
        <time>2024-08-27T17:15:37Z</time>
      </trkpt>
      <trkpt lat="44.3834" lon="1.43589">
        <ele>198</ele>
        <time>2024-08-27T17:16:05Z</time>
      </trkpt>
      <trkpt lat="44.38279" lon="1.43573">
        <ele>197</ele>
        <time>2024-08-27T17:17:28Z</time>
      </trkpt>
      <trkpt lat="44.38262" lon="1.43572">
        <ele>196</ele>
        <time>2024-08-27T17:17:50Z</time>
      </trkpt>
      <trkpt lat="44.38244" lon="1.4357">
        <ele>196</ele>
        <time>2024-08-27T17:18:14Z</time>
      </trkpt>
      <trkpt lat="44.38227" lon="1.43562">
        <ele>197</ele>
        <time>2024-08-27T17:18:38Z</time>
      </trkpt>
      <trkpt lat="44.38204" lon="1.43513">
        <ele>201</ele>
        <time>2024-08-27T17:19:34Z</time>
      </trkpt>
      <trkpt lat="44.38193" lon="1.43499">
        <ele>201</ele>
        <time>2024-08-27T17:19:54Z</time>
      </trkpt>
      <trkpt lat="44.38157" lon="1.43472">
        <ele>199</ele>
        <time>2024-08-27T17:20:49Z</time>
      </trkpt>
      <trkpt lat="44.38141" lon="1.43453">
        <ele>199</ele>
        <time>2024-08-27T17:21:17Z</time>
      </trkpt>
      <trkpt lat="44.38119" lon="1.43441">
        <ele>199</ele>
        <time>2024-08-27T17:21:48Z</time>
      </trkpt>
      <trkpt lat="44.38096" lon="1.43447">
        <ele>197</ele>
        <time>2024-08-27T17:22:19Z</time>
      </trkpt>
      <trkpt lat="44.38044" lon="1.43472">
        <ele>196</ele>
        <time>2024-08-27T17:23:33Z</time>
      </trkpt>
      <trkpt lat="44.38027" lon="1.43479">
        <ele>196</ele>
        <time>2024-08-27T17:23:56Z</time>
      </trkpt>
      <trkpt lat="44.38011" lon="1.43471">
        <ele>197</ele>
        <time>2024-08-27T17:24:19Z</time>
      </trkpt>
      <trkpt lat="44.38" lon="1.43463">
        <ele>198</ele>
        <time>2024-08-27T17:24:35Z</time>
      </trkpt>
      <trkpt lat="44.38001" lon="1.43456">
        <ele>198</ele>
        <time>2024-08-27T17:24:42Z</time>
      </trkpt>
      <trkpt lat="44.37997" lon="1.43454">
        <ele>198</ele>
        <time>2024-08-27T17:24:48Z</time>
      </trkpt>
      <trkpt lat="44.37999" lon="1.43457">
        <ele>198</ele>
        <time>2024-08-27T17:24:52Z</time>
      </trkpt>
      <trkpt lat="44.37998" lon="1.43452">
        <ele>198</ele>
        <time>2024-08-27T17:24:57Z</time>
      </trkpt>
      <trkpt lat="44.37997" lon="1.43456">
        <ele>198</ele>
        <time>2024-08-27T17:25:01Z</time>
      </trkpt>
      <trkpt lat="44.37998" lon="1.43457">
        <ele>198</ele>
        <time>2024-08-27T17:25:03Z</time>
      </trkpt>
      <trkpt lat="44.37985" lon="1.43453">
        <ele>198</ele>
        <time>2024-08-27T17:25:20Z</time>
      </trkpt>
      <trkpt lat="44.37968" lon="1.43439">
        <ele>199</ele>
        <time>2024-08-27T17:25:47Z</time>
      </trkpt>
      <trkpt lat="44.37967" lon="1.43455">
        <ele>198</ele>
        <time>2024-08-27T17:26:02Z</time>
      </trkpt>
      <trkpt lat="44.37966" lon="1.43448">
        <ele>198</ele>
        <time>2024-08-27T17:26:09Z</time>
      </trkpt>
      <trkpt lat="44.3797" lon="1.43439">
        <ele>199</ele>
        <time>2024-08-27T17:26:19Z</time>
      </trkpt>
      <trkpt lat="44.3797" lon="1.43436">
        <ele>199</ele>
        <time>2024-08-27T17:26:22Z</time>
      </trkpt>
      <trkpt lat="44.37971" lon="1.43439">
        <ele>199</ele>
        <time>2024-08-27T17:26:25Z</time>
      </trkpt>
      <trkpt lat="44.37967" lon="1.43433">
        <ele>199</ele>
        <time>2024-08-27T17:26:33Z</time>
      </trkpt>
      <trkpt lat="44.37967" lon="1.43436">
        <ele>199</ele>
        <time>2024-08-27T17:26:36Z</time>
      </trkpt>
      <trkpt lat="44.37952" lon="1.43423">
        <ele>199</ele>
        <time>2024-08-27T17:26:59Z</time>
      </trkpt>
      <trkpt lat="44.3794" lon="1.43417">
        <ele>199</ele>
        <time>2024-08-27T17:27:16Z</time>
      </trkpt>
      <trkpt lat="44.37918" lon="1.4341">
        <ele>200</ele>
        <time>2024-08-27T17:27:46Z</time>
      </trkpt>
      <trkpt lat="44.379" lon="1.43406">
        <ele>200</ele>
        <time>2024-08-27T17:28:11Z</time>
      </trkpt>
      <trkpt lat="44.37885" lon="1.43396">
        <ele>201</ele>
        <time>2024-08-27T17:28:33Z</time>
      </trkpt>
      <trkpt lat="44.37859" lon="1.43364">
        <ele>203</ele>
        <time>2024-08-27T17:29:19Z</time>
      </trkpt>
      <trkpt lat="44.37841" lon="1.43349">
        <ele>203</ele>
        <time>2024-08-27T17:29:47Z</time>
      </trkpt>
      <trkpt lat="44.3781" lon="1.43332">
        <ele>203</ele>
        <time>2024-08-27T17:30:31Z</time>
      </trkpt>
      <trkpt lat="44.37776" lon="1.43317">
        <ele>203</ele>
        <time>2024-08-27T17:31:19Z</time>
      </trkpt>
      <trkpt lat="44.37741" lon="1.43291">
        <ele>203</ele>
        <time>2024-08-27T17:32:12Z</time>
      </trkpt>
      <trkpt lat="44.37688" lon="1.43269">
        <ele>204</ele>
        <time>2024-08-27T17:33:26Z</time>
      </trkpt>
      <trkpt lat="44.37667" lon="1.43258">
        <ele>204</ele>
        <time>2024-08-27T17:33:55Z</time>
      </trkpt>
      <trkpt lat="44.37653" lon="1.43255">
        <ele>204</ele>
        <time>2024-08-27T17:34:14Z</time>
      </trkpt>
      <trkpt lat="44.37626" lon="1.43299">
        <ele>204</ele>
        <time>2024-08-27T17:35:10Z</time>
      </trkpt>
      <trkpt lat="44.37621" lon="1.43302">
        <ele>204</ele>
        <time>2024-08-27T17:35:17Z</time>
      </trkpt>
      <trkpt lat="44.37624" lon="1.43304">
        <ele>204</ele>
        <time>2024-08-27T17:35:21Z</time>
      </trkpt>
      <trkpt lat="44.3762" lon="1.43301">
        <ele>204</ele>
        <time>2024-08-27T17:35:27Z</time>
      </trkpt>
      <trkpt lat="44.37619" lon="1.43302">
        <ele>204</ele>
        <time>2024-08-27T17:35:29Z</time>
      </trkpt>
      <trkpt lat="44.37611" lon="1.43303">
        <ele>204</ele>
        <time>2024-08-27T17:35:40Z</time>
      </trkpt>
      <trkpt lat="44.376" lon="1.4329">
        <ele>205</ele>
        <time>2024-08-27T17:35:59Z</time>
      </trkpt>
      <trkpt lat="44.37522" lon="1.43222">
        <ele>208</ele>
        <time>2024-08-27T17:38:02Z</time>
      </trkpt>
      <trkpt lat="44.37387" lon="1.43116">
        <ele>213</ele>
        <time>2024-08-27T17:41:28Z</time>
      </trkpt>
      <trkpt lat="44.37375" lon="1.43099">
        <ele>215</ele>
        <time>2024-08-27T17:41:51Z</time>
      </trkpt>
      <trkpt lat="44.37378" lon="1.43103">
        <ele>214</ele>
        <time>2024-08-27T17:41:57Z</time>
      </trkpt>
      <trkpt lat="44.37378" lon="1.43099">
        <ele>215</ele>
        <time>2024-08-27T17:42:00Z</time>
      </trkpt>
      <trkpt lat="44.37375" lon="1.43099">
        <ele>215</ele>
        <time>2024-08-27T17:42:04Z</time>
      </trkpt>
      <trkpt lat="44.37371" lon="1.43094">
        <ele>216</ele>
        <time>2024-08-27T17:42:11Z</time>
      </trkpt>
      <trkpt lat="44.37376" lon="1.43085">
        <ele>216</ele>
        <time>2024-08-27T17:42:22Z</time>
      </trkpt>
      <trkpt lat="44.3738" lon="1.43068">
        <ele>216</ele>
        <time>2024-08-27T17:42:39Z</time>
      </trkpt>
      <trkpt lat="44.37383" lon="1.43045">
        <ele>217</ele>
        <time>2024-08-27T17:43:02Z</time>
      </trkpt>
      <trkpt lat="44.37379" lon="1.43023">
        <ele>220</ele>
        <time>2024-08-27T17:43:23Z</time>
      </trkpt>
      <trkpt lat="44.37363" lon="1.42971">
        <ele>224</ele>
        <time>2024-08-27T17:44:17Z</time>
      </trkpt>
      <trkpt lat="44.37336" lon="1.42839">
        <ele>225</ele>
        <time>2024-08-27T17:46:28Z</time>
      </trkpt>
      <trkpt lat="44.37325" lon="1.428">
        <ele>225</ele>
        <time>2024-08-27T17:47:08Z</time>
      </trkpt>
      <trkpt lat="44.37312" lon="1.42771">
        <ele>226</ele>
        <time>2024-08-27T17:47:41Z</time>
      </trkpt>
      <trkpt lat="44.37295" lon="1.42724">
        <ele>227</ele>
        <time>2024-08-27T17:48:31Z</time>
      </trkpt>
      <trkpt lat="44.37279" lon="1.427">
        <ele>228</ele>
        <time>2024-08-27T17:49:03Z</time>
      </trkpt>
      <trkpt lat="44.37263" lon="1.42684">
        <ele>229</ele>
        <time>2024-08-27T17:49:29Z</time>
      </trkpt>
      <trkpt lat="44.37248" lon="1.42672">
        <ele>230</ele>
        <time>2024-08-27T17:49:52Z</time>
      </trkpt>
      <trkpt lat="44.37234" lon="1.42654">
        <ele>231</ele>
        <time>2024-08-27T17:50:17Z</time>
      </trkpt>
      <trkpt lat="44.37228" lon="1.42644">
        <ele>232</ele>
        <time>2024-08-27T17:50:30Z</time>
      </trkpt>
      <trkpt lat="44.3722" lon="1.42616">
        <ele>232</ele>
        <time>2024-08-27T17:50:58Z</time>
      </trkpt>
      <trkpt lat="44.37221" lon="1.4259">
        <ele>230</ele>
        <time>2024-08-27T17:51:23Z</time>
      </trkpt>
      <trkpt lat="44.37217" lon="1.4257">
        <ele>231</ele>
        <time>2024-08-27T17:51:43Z</time>
      </trkpt>
      <trkpt lat="44.37209" lon="1.42542">
        <ele>233</ele>
        <time>2024-08-27T17:52:12Z</time>
      </trkpt>
      <trkpt lat="44.37196" lon="1.42472">
        <ele>238</ele>
        <time>2024-08-27T17:53:21Z</time>
      </trkpt>
      <trkpt lat="44.37184" lon="1.42429">
        <ele>241</ele>
        <time>2024-08-27T17:54:05Z</time>
      </trkpt>
      <trkpt lat="44.37174" lon="1.42405">
        <ele>242</ele>
        <time>2024-08-27T17:54:31Z</time>
      </trkpt>
      <trkpt lat="44.37161" lon="1.42366">
        <ele>243</ele>
        <time>2024-08-27T17:55:12Z</time>
      </trkpt>
      <trkpt lat="44.37158" lon="1.42346">
        <ele>243</ele>
        <time>2024-08-27T17:55:32Z</time>
      </trkpt>
      <trkpt lat="44.37149" lon="1.4232">
        <ele>244</ele>
        <time>2024-08-27T17:55:59Z</time>
      </trkpt>
      <trkpt lat="44.37147" lon="1.42318">
        <ele>244</ele>
        <time>2024-08-27T17:56:03Z</time>
      </trkpt>
      <trkpt lat="44.37121" lon="1.42252">
        <ele>247</ele>
        <time>2024-08-27T17:57:15Z</time>
      </trkpt>
      <trkpt lat="44.3711" lon="1.42235">
        <ele>248</ele>
        <time>2024-08-27T17:57:37Z</time>
      </trkpt>
      <trkpt lat="44.37097" lon="1.42224">
        <ele>250</ele>
        <time>2024-08-27T17:57:57Z</time>
      </trkpt>
      <trkpt lat="44.37079" lon="1.42213">
        <ele>251</ele>
        <time>2024-08-27T17:58:23Z</time>
      </trkpt>
      <trkpt lat="44.37063" lon="1.42207">
        <ele>252</ele>
        <time>2024-08-27T17:58:45Z</time>
      </trkpt>
      <trkpt lat="44.37044" lon="1.42198">
        <ele>253</ele>
        <time>2024-08-27T17:59:12Z</time>
      </trkpt>
      <trkpt lat="44.37026" lon="1.42196">
        <ele>255</ele>
        <time>2024-08-27T17:59:36Z</time>
      </trkpt>
      <trkpt lat="44.37008" lon="1.42196">
        <ele>258</ele>
        <time>2024-08-27T18:00:00Z</time>
      </trkpt>
      <trkpt lat="44.36963" lon="1.42208">
        <ele>264</ele>
        <time>2024-08-27T18:01:01Z</time>
      </trkpt>
      <trkpt lat="44.36933" lon="1.42211">
        <ele>266</ele>
        <time>2024-08-27T18:01:41Z</time>
      </trkpt>
      <trkpt lat="44.3692" lon="1.4221">
        <ele>267</ele>
        <time>2024-08-27T18:01:59Z</time>
      </trkpt>
      <trkpt lat="44.36909" lon="1.42205">
        <ele>267</ele>
        <time>2024-08-27T18:02:14Z</time>
      </trkpt>
      <trkpt lat="44.36899" lon="1.42203">
        <ele>267</ele>
        <time>2024-08-27T18:02:28Z</time>
      </trkpt>
      <trkpt lat="44.36872" lon="1.42203">
        <ele>269</ele>
        <time>2024-08-27T18:03:04Z</time>
      </trkpt>
      <trkpt lat="44.36841" lon="1.42211">
        <ele>272</ele>
        <time>2024-08-27T18:03:46Z</time>
      </trkpt>
      <trkpt lat="44.36824" lon="1.42218">
        <ele>274</ele>
        <time>2024-08-27T18:04:09Z</time>
      </trkpt>
      <trkpt lat="44.36808" lon="1.42228">
        <ele>277</ele>
        <time>2024-08-27T18:04:33Z</time>
      </trkpt>
      <trkpt lat="44.36807" lon="1.42223">
        <ele>276</ele>
        <time>2024-08-27T18:04:38Z</time>
      </trkpt>
      <trkpt lat="44.36801" lon="1.42225">
        <ele>277</ele>
        <time>2024-08-27T18:04:46Z</time>
      </trkpt>
      <trkpt lat="44.36806" lon="1.42225">
        <ele>276</ele>
        <time>2024-08-27T18:04:53Z</time>
      </trkpt>
      <trkpt lat="44.36809" lon="1.42227">
        <ele>276</ele>
        <time>2024-08-27T18:04:57Z</time>
      </trkpt>
      <trkpt lat="44.36807" lon="1.42236">
        <ele>277</ele>
        <time>2024-08-27T18:05:06Z</time>
      </trkpt>
      <trkpt lat="44.36807" lon="1.42225">
        <ele>276</ele>
        <time>2024-08-27T18:05:16Z</time>
      </trkpt>
      <trkpt lat="44.36809" lon="1.42228">
        <ele>276</ele>
        <time>2024-08-27T18:05:20Z</time>
      </trkpt>
      <trkpt lat="44.36797" lon="1.42219">
        <ele>276</ele>
        <time>2024-08-27T18:05:39Z</time>
      </trkpt>
      <trkpt lat="44.36791" lon="1.42212">
        <ele>276</ele>
        <time>2024-08-27T18:05:49Z</time>
      </trkpt>
      <trkpt lat="44.36789" lon="1.42216">
        <ele>277</ele>
        <time>2024-08-27T18:05:54Z</time>
      </trkpt>
      <trkpt lat="44.36779" lon="1.42198">
        <ele>277</ele>
        <time>2024-08-27T18:06:15Z</time>
      </trkpt>
      <trkpt lat="44.36774" lon="1.42196">
        <ele>277</ele>
        <time>2024-08-27T18:06:22Z</time>
      </trkpt>
      <trkpt lat="44.36766" lon="1.42198">
        <ele>278</ele>
        <time>2024-08-27T18:06:33Z</time>
      </trkpt>
      <trkpt lat="44.36762" lon="1.42215">
        <ele>279</ele>
        <time>2024-08-27T18:06:50Z</time>
      </trkpt>
      <trkpt lat="44.36766" lon="1.42214">
        <ele>279</ele>
        <time>2024-08-27T18:06:56Z</time>
      </trkpt>
      <trkpt lat="44.36761" lon="1.42214">
        <ele>279</ele>
        <time>2024-08-27T18:07:02Z</time>
      </trkpt>
      <trkpt lat="44.3676" lon="1.42218">
        <ele>279</ele>
        <time>2024-08-27T18:07:06Z</time>
      </trkpt>
      <trkpt lat="44.36757" lon="1.42222">
        <ele>280</ele>
        <time>2024-08-27T18:07:12Z</time>
      </trkpt>
      <trkpt lat="44.36757" lon="1.42233">
        <ele>280</ele>
        <time>2024-08-27T18:07:22Z</time>
      </trkpt>
      <trkpt lat="44.3676" lon="1.42231">
        <ele>280</ele>
        <time>2024-08-27T18:07:27Z</time>
      </trkpt>
      <trkpt lat="44.36757" lon="1.42239">
        <ele>280</ele>
        <time>2024-08-27T18:07:35Z</time>
      </trkpt>
      <trkpt lat="44.36747" lon="1.42242">
        <ele>281</ele>
        <time>2024-08-27T18:07:49Z</time>
      </trkpt>
      <trkpt lat="44.36724" lon="1.42233">
        <ele>281</ele>
        <time>2024-08-27T18:08:21Z</time>
      </trkpt>
      <trkpt lat="44.36719" lon="1.42229">
        <ele>280</ele>
        <time>2024-08-27T18:08:29Z</time>
      </trkpt>
      <trkpt lat="44.36708" lon="1.42229">
        <ele>280</ele>
        <time>2024-08-27T18:08:43Z</time>
      </trkpt>
      <trkpt lat="44.36674" lon="1.42221">
        <ele>280</ele>
        <time>2024-08-27T18:09:29Z</time>
      </trkpt>
      <trkpt lat="44.36618" lon="1.42213">
        <ele>283</ele>
        <time>2024-08-27T18:10:44Z</time>
      </trkpt>
      <trkpt lat="44.36598" lon="1.42204">
        <ele>285</ele>
        <time>2024-08-27T18:11:13Z</time>
      </trkpt>
      <trkpt lat="44.36587" lon="1.42203">
        <ele>286</ele>
        <time>2024-08-27T18:11:27Z</time>
      </trkpt>
      <trkpt lat="44.36566" lon="1.42211">
        <ele>287</ele>
        <time>2024-08-27T18:11:56Z</time>
      </trkpt>
      <trkpt lat="44.36551" lon="1.4221">
        <ele>288</ele>
        <time>2024-08-27T18:12:16Z</time>
      </trkpt>
      <trkpt lat="44.36533" lon="1.42211">
        <ele>289</ele>
        <time>2024-08-27T18:12:40Z</time>
      </trkpt>
      <trkpt lat="44.36501" lon="1.42208">
        <ele>291</ele>
        <time>2024-08-27T18:13:23Z</time>
      </trkpt>
      <trkpt lat="44.36485" lon="1.4221">
        <ele>292</ele>
        <time>2024-08-27T18:13:45Z</time>
      </trkpt>
      <trkpt lat="44.36439" lon="1.42224">
        <ele>292</ele>
        <time>2024-08-27T18:14:47Z</time>
      </trkpt>
      <trkpt lat="44.36424" lon="1.42226">
        <ele>292</ele>
        <time>2024-08-27T18:15:08Z</time>
      </trkpt>
      <trkpt lat="44.36425" lon="1.42223">
        <ele>292</ele>
        <time>2024-08-27T18:15:11Z</time>
      </trkpt>
      <trkpt lat="44.36427" lon="1.42222">
        <ele>292</ele>
        <time>2024-08-27T18:15:13Z</time>
      </trkpt>
      <trkpt lat="44.36387" lon="1.4224">
        <ele>293</ele>
        <time>2024-08-27T18:16:10Z</time>
      </trkpt>
      <trkpt lat="44.36347" lon="1.42253">
        <ele>295</ele>
        <time>2024-08-27T18:17:04Z</time>
      </trkpt>
      <trkpt lat="44.36308" lon="1.4227">
        <ele>297</ele>
        <time>2024-08-27T18:17:59Z</time>
      </trkpt>
      <trkpt lat="44.36303" lon="1.42271">
        <ele>297</ele>
        <time>2024-08-27T18:18:06Z</time>
      </trkpt>
      <trkpt lat="44.36225" lon="1.42305">
        <ele>299</ele>
        <time>2024-08-27T18:19:55Z</time>
      </trkpt>
      <trkpt lat="44.36222" lon="1.4229">
        <ele>299</ele>
        <time>2024-08-27T18:20:10Z</time>
      </trkpt>
      <trkpt lat="44.36208" lon="1.42268">
        <ele>299</ele>
        <time>2024-08-27T18:20:38Z</time>
      </trkpt>
      <trkpt lat="44.36194" lon="1.42254">
        <ele>299</ele>
        <time>2024-08-27T18:21:01Z</time>
      </trkpt>
      <trkpt lat="44.36188" lon="1.42245">
        <ele>299</ele>
        <time>2024-08-27T18:21:12Z</time>
      </trkpt>
      <trkpt lat="44.36144" lon="1.42198">
        <ele>298</ele>
        <time>2024-08-27T18:22:26Z</time>
      </trkpt>
      <trkpt lat="44.36128" lon="1.42191">
        <ele>298</ele>
        <time>2024-08-27T18:22:49Z</time>
      </trkpt>
      <trkpt lat="44.36093" lon="1.42195">
        <ele>296</ele>
        <time>2024-08-27T18:23:35Z</time>
      </trkpt>
      <trkpt lat="44.36075" lon="1.42199">
        <ele>296</ele>
        <time>2024-08-27T18:24:00Z</time>
      </trkpt>
      <trkpt lat="44.3603" lon="1.422">
        <ele>295</ele>
        <time>2024-08-27T18:25:00Z</time>
      </trkpt>
      <trkpt lat="44.36016" lon="1.4221">
        <ele>294</ele>
        <time>2024-08-27T18:25:21Z</time>
      </trkpt>
      <trkpt lat="44.3599" lon="1.42236">
        <ele>293</ele>
        <time>2024-08-27T18:26:03Z</time>
      </trkpt>
      <trkpt lat="44.35976" lon="1.42253">
        <ele>292</ele>
        <time>2024-08-27T18:26:28Z</time>
      </trkpt>
      <trkpt lat="44.35962" lon="1.42275">
        <ele>292</ele>
        <time>2024-08-27T18:26:56Z</time>
      </trkpt>
      <trkpt lat="44.35949" lon="1.4229">
        <ele>292</ele>
        <time>2024-08-27T18:27:19Z</time>
      </trkpt>
      <trkpt lat="44.35934" lon="1.42305">
        <ele>293</ele>
        <time>2024-08-27T18:27:43Z</time>
      </trkpt>
      <trkpt lat="44.35899" lon="1.42329">
        <ele>293</ele>
        <time>2024-08-27T18:28:35Z</time>
      </trkpt>
      <trkpt lat="44.35872" lon="1.42352">
        <ele>293</ele>
        <time>2024-08-27T18:29:18Z</time>
      </trkpt>
      <trkpt lat="44.35854" lon="1.42364">
        <ele>293</ele>
        <time>2024-08-27T18:29:44Z</time>
      </trkpt>
      <trkpt lat="44.35787" lon="1.42432">
        <ele>297</ele>
        <time>2024-08-27T18:31:35Z</time>
      </trkpt>
      <trkpt lat="44.35766" lon="1.4245">
        <ele>299</ele>
        <time>2024-08-27T18:32:08Z</time>
      </trkpt>
      <trkpt lat="44.35769" lon="1.42451">
        <ele>299</ele>
        <time>2024-08-27T18:32:12Z</time>
      </trkpt>
      <trkpt lat="44.35764" lon="1.42455">
        <ele>299</ele>
        <time>2024-08-27T18:32:19Z</time>
      </trkpt>
      <trkpt lat="44.35763" lon="1.42453">
        <ele>299</ele>
        <time>2024-08-27T18:32:22Z</time>
      </trkpt>
      <trkpt lat="44.35766" lon="1.42455">
        <ele>299</ele>
        <time>2024-08-27T18:32:26Z</time>
      </trkpt>
      <trkpt lat="44.35765" lon="1.42453">
        <ele>299</ele>
        <time>2024-08-27T18:32:28Z</time>
      </trkpt>
      <trkpt lat="44.35749" lon="1.42552">
        <ele>300</ele>
        <time>2024-08-27T18:34:05Z</time>
      </trkpt>
      <trkpt lat="44.35741" lon="1.42576">
        <ele>300</ele>
        <time>2024-08-27T18:34:31Z</time>
      </trkpt>
      <trkpt lat="44.35732" lon="1.42597">
        <ele>300</ele>
        <time>2024-08-27T18:34:54Z</time>
      </trkpt>
      <trkpt lat="44.35709" lon="1.42637">
        <ele>300</ele>
        <time>2024-08-27T18:35:43Z</time>
      </trkpt>
      <trkpt lat="44.35702" lon="1.42667">
        <ele>299</ele>
        <time>2024-08-27T18:36:13Z</time>
      </trkpt>
      <trkpt lat="44.35693" lon="1.4269">
        <ele>299</ele>
        <time>2024-08-27T18:36:38Z</time>
      </trkpt>
      <trkpt lat="44.3567" lon="1.42728">
        <ele>299</ele>
        <time>2024-08-27T18:37:25Z</time>
      </trkpt>
      <trkpt lat="44.35652" lon="1.42746">
        <ele>299</ele>
        <time>2024-08-27T18:37:55Z</time>
      </trkpt>
      <trkpt lat="44.35673" lon="1.42757">
        <ele>299</ele>
        <time>2024-08-27T18:38:25Z</time>
      </trkpt>
      <trkpt lat="44.3569" lon="1.42766">
        <ele>298</ele>
        <time>2024-08-27T18:38:49Z</time>
      </trkpt>
      <trkpt lat="44.35705" lon="1.42787">
        <ele>296</ele>
        <time>2024-08-27T18:39:18Z</time>
      </trkpt>
      <trkpt lat="44.35712" lon="1.42815">
        <ele>295</ele>
        <time>2024-08-27T18:39:46Z</time>
      </trkpt>
      <trkpt lat="44.35715" lon="1.42844">
        <ele>294</ele>
        <time>2024-08-27T18:40:14Z</time>
      </trkpt>
      <trkpt lat="44.35718" lon="1.42872">
        <ele>292</ele>
        <time>2024-08-27T18:40:41Z</time>
      </trkpt>
      <trkpt lat="44.35725" lon="1.42889">
        <ele>291</ele>
        <time>2024-08-27T18:41:00Z</time>
      </trkpt>
      <trkpt lat="44.35735" lon="1.42911">
        <ele>289</ele>
        <time>2024-08-27T18:41:24Z</time>
      </trkpt>
      <trkpt lat="44.35744" lon="1.4293">
        <ele>288</ele>
        <time>2024-08-27T18:41:46Z</time>
      </trkpt>
      <trkpt lat="44.35756" lon="1.42945">
        <ele>287</ele>
        <time>2024-08-27T18:42:08Z</time>
      </trkpt>
      <trkpt lat="44.35781" lon="1.42948">
        <ele>285</ele>
        <time>2024-08-27T18:42:41Z</time>
      </trkpt>
      <trkpt lat="44.35799" lon="1.4295">
        <ele>284</ele>
        <time>2024-08-27T18:43:05Z</time>
      </trkpt>
      <trkpt lat="44.3582" lon="1.42953">
        <ele>283</ele>
        <time>2024-08-27T18:43:33Z</time>
      </trkpt>
      <trkpt lat="44.35839" lon="1.42969">
        <ele>282</ele>
        <time>2024-08-27T18:44:03Z</time>
      </trkpt>
      <trkpt lat="44.35855" lon="1.42988">
        <ele>281</ele>
        <time>2024-08-27T18:44:31Z</time>
      </trkpt>
      <trkpt lat="44.35872" lon="1.43006">
        <ele>281</ele>
        <time>2024-08-27T18:44:59Z</time>
      </trkpt>
      <trkpt lat="44.35887" lon="1.43019">
        <ele>281</ele>
        <time>2024-08-27T18:45:23Z</time>
      </trkpt>
      <trkpt lat="44.35902" lon="1.43038">
        <ele>281</ele>
        <time>2024-08-27T18:45:50Z</time>
      </trkpt>
      <trkpt lat="44.3591" lon="1.43061">
        <ele>281</ele>
        <time>2024-08-27T18:46:14Z</time>
      </trkpt>
      <trkpt lat="44.35923" lon="1.43089">
        <ele>281</ele>
        <time>2024-08-27T18:46:46Z</time>
      </trkpt>
      <trkpt lat="44.3594" lon="1.43115">
        <ele>282</ele>
        <time>2024-08-27T18:47:20Z</time>
      </trkpt>
      <trkpt lat="44.35952" lon="1.43135">
        <ele>283</ele>
        <time>2024-08-27T18:47:45Z</time>
      </trkpt>
      <trkpt lat="44.3597" lon="1.43148">
        <ele>283</ele>
        <time>2024-08-27T18:48:12Z</time>
      </trkpt>
      <trkpt lat="44.35989" lon="1.43151">
        <ele>282</ele>
        <time>2024-08-27T18:48:37Z</time>
      </trkpt>
      <trkpt lat="44.36008" lon="1.43154">
        <ele>281</ele>
        <time>2024-08-27T18:49:03Z</time>
      </trkpt>
      <trkpt lat="44.36031" lon="1.4317">
        <ele>282</ele>
        <time>2024-08-27T18:49:37Z</time>
      </trkpt>
      <trkpt lat="44.36051" lon="1.43173">
        <ele>282</ele>
        <time>2024-08-27T18:50:04Z</time>
      </trkpt>
      <trkpt lat="44.36068" lon="1.43191">
        <ele>282</ele>
        <time>2024-08-27T18:50:32Z</time>
      </trkpt>
      <trkpt lat="44.3608" lon="1.43212">
        <ele>283</ele>
        <time>2024-08-27T18:50:58Z</time>
      </trkpt>
      <trkpt lat="44.36093" lon="1.43236">
        <ele>284</ele>
        <time>2024-08-27T18:51:27Z</time>
      </trkpt>
      <trkpt lat="44.36105" lon="1.43258">
        <ele>285</ele>
        <time>2024-08-27T18:51:53Z</time>
      </trkpt>
      <trkpt lat="44.36115" lon="1.43288">
        <ele>288</ele>
        <time>2024-08-27T18:52:25Z</time>
      </trkpt>
      <trkpt lat="44.36128" lon="1.43317">
        <ele>290</ele>
        <time>2024-08-27T18:52:57Z</time>
      </trkpt>
      <trkpt lat="44.36138" lon="1.43345">
        <ele>290</ele>
        <time>2024-08-27T18:53:27Z</time>
      </trkpt>
      <trkpt lat="44.3615" lon="1.43371">
        <ele>289</ele>
        <time>2024-08-27T18:53:57Z</time>
      </trkpt>
      <trkpt lat="44.36159" lon="1.434">
        <ele>287</ele>
        <time>2024-08-27T18:54:27Z</time>
      </trkpt>
      <trkpt lat="44.3617" lon="1.43421">
        <ele>286</ele>
        <time>2024-08-27T18:54:52Z</time>
      </trkpt>
      <trkpt lat="44.36181" lon="1.43438">
        <ele>284</ele>
        <time>2024-08-27T18:55:14Z</time>
      </trkpt>
      <trkpt lat="44.36187" lon="1.43472">
        <ele>282</ele>
        <time>2024-08-27T18:55:47Z</time>
      </trkpt>
      <trkpt lat="44.36197" lon="1.43495">
        <ele>281</ele>
        <time>2024-08-27T18:56:13Z</time>
      </trkpt>
      <trkpt lat="44.36205" lon="1.43522">
        <ele>281</ele>
        <time>2024-08-27T18:56:41Z</time>
      </trkpt>
      <trkpt lat="44.36222" lon="1.43555">
        <ele>281</ele>
        <time>2024-08-27T18:57:19Z</time>
      </trkpt>
      <trkpt lat="44.36238" lon="1.43572">
        <ele>281</ele>
        <time>2024-08-27T18:57:46Z</time>
      </trkpt>
      <trkpt lat="44.36253" lon="1.43592">
        <ele>282</ele>
        <time>2024-08-27T18:58:14Z</time>
      </trkpt>
      <trkpt lat="44.36263" lon="1.43613">
        <ele>283</ele>
        <time>2024-08-27T18:58:38Z</time>
      </trkpt>
      <trkpt lat="44.36279" lon="1.43633">
        <ele>284</ele>
        <time>2024-08-27T18:59:07Z</time>
      </trkpt>
      <trkpt lat="44.36291" lon="1.43648">
        <ele>285</ele>
        <time>2024-08-27T18:59:28Z</time>
      </trkpt>
      <trkpt lat="44.36307" lon="1.43668">
        <ele>286</ele>
        <time>2024-08-27T18:59:57Z</time>
      </trkpt>
      <trkpt lat="44.36317" lon="1.43691">
        <ele>286</ele>
        <time>2024-08-27T19:00:22Z</time>
      </trkpt>
      <trkpt lat="44.36328" lon="1.43707">
        <ele>286</ele>
        <time>2024-08-27T19:00:44Z</time>
      </trkpt>
      <trkpt lat="44.36337" lon="1.43728">
        <ele>286</ele>
        <time>2024-08-27T19:01:07Z</time>
      </trkpt>
      <trkpt lat="44.36351" lon="1.43726">
        <ele>286</ele>
        <time>2024-08-27T19:01:26Z</time>
      </trkpt>
      <trkpt lat="44.3637" lon="1.43729">
        <ele>286</ele>
        <time>2024-08-27T19:01:51Z</time>
      </trkpt>
      <trkpt lat="44.3639" lon="1.43743">
        <ele>287</ele>
        <time>2024-08-27T19:02:21Z</time>
      </trkpt>
      <trkpt lat="44.36409" lon="1.43773">
        <ele>286</ele>
        <time>2024-08-27T19:02:59Z</time>
      </trkpt>
      <trkpt lat="44.36421" lon="1.43797">
        <ele>285</ele>
        <time>2024-08-27T19:03:27Z</time>
      </trkpt>
      <trkpt lat="44.36428" lon="1.43815">
        <ele>284</ele>
        <time>2024-08-27T19:03:47Z</time>
      </trkpt>
      <trkpt lat="44.36433" lon="1.43849">
        <ele>281</ele>
        <time>2024-08-27T19:04:20Z</time>
      </trkpt>
      <trkpt lat="44.36433" lon="1.43861">
        <ele>279</ele>
        <time>2024-08-27T19:04:31Z</time>
      </trkpt>
      <trkpt lat="44.36448" lon="1.43882">
        <ele>274</ele>
        <time>2024-08-27T19:05:00Z</time>
      </trkpt>
      <trkpt lat="44.36455" lon="1.43897">
        <ele>271</ele>
        <time>2024-08-27T19:05:17Z</time>
      </trkpt>
      <trkpt lat="44.36459" lon="1.43916">
        <ele>268</ele>
        <time>2024-08-27T19:05:36Z</time>
      </trkpt>
      <trkpt lat="44.36467" lon="1.43936">
        <ele>266</ele>
        <time>2024-08-27T19:05:58Z</time>
      </trkpt>
      <trkpt lat="44.3647" lon="1.43959">
        <ele>265</ele>
        <time>2024-08-27T19:06:20Z</time>
      </trkpt>
      <trkpt lat="44.36476" lon="1.4398">
        <ele>264</ele>
        <time>2024-08-27T19:06:41Z</time>
      </trkpt>
      <trkpt lat="44.36479" lon="1.44009">
        <ele>264</ele>
        <time>2024-08-27T19:07:09Z</time>
      </trkpt>
      <trkpt lat="44.36482" lon="1.44026">
        <ele>265</ele>
        <time>2024-08-27T19:07:26Z</time>
      </trkpt>
      <trkpt lat="44.3649" lon="1.44046">
        <ele>267</ele>
        <time>2024-08-27T19:07:48Z</time>
      </trkpt>
      <trkpt lat="44.36499" lon="1.44092">
        <ele>270</ele>
        <time>2024-08-27T19:08:33Z</time>
      </trkpt>
      <trkpt lat="44.36507" lon="1.44118">
        <ele>270</ele>
        <time>2024-08-27T19:09:00Z</time>
      </trkpt>
      <trkpt lat="44.36509" lon="1.44138">
        <ele>271</ele>
        <time>2024-08-27T19:09:20Z</time>
      </trkpt>
      <trkpt lat="44.36508" lon="1.4414">
        <ele>271</ele>
        <time>2024-08-27T19:09:22Z</time>
      </trkpt>
      <trkpt lat="44.36516" lon="1.44147">
        <ele>271</ele>
        <time>2024-08-27T19:09:35Z</time>
      </trkpt>
      <trkpt lat="44.36513" lon="1.44152">
        <ele>271</ele>
        <time>2024-08-27T19:09:41Z</time>
      </trkpt>
      <trkpt lat="44.36519" lon="1.44178">
        <ele>271</ele>
        <time>2024-08-27T19:10:07Z</time>
      </trkpt>
      <trkpt lat="44.36523" lon="1.44188">
        <ele>270</ele>
        <time>2024-08-27T19:10:18Z</time>
      </trkpt>
      <trkpt lat="44.36555" lon="1.4428">
        <ele>268</ele>
        <time>2024-08-27T19:11:55Z</time>
      </trkpt>
      <trkpt lat="44.3656" lon="1.44293">
        <ele>268</ele>
        <time>2024-08-27T19:12:10Z</time>
      </trkpt>
      <trkpt lat="44.36569" lon="1.44335">
        <ele>266</ele>
        <time>2024-08-27T19:12:51Z</time>
      </trkpt>
      <trkpt lat="44.366" lon="1.44435">
        <ele>263</ele>
        <time>2024-08-27T19:14:35Z</time>
      </trkpt>
      <trkpt lat="44.36617" lon="1.44507">
        <ele>263</ele>
        <time>2024-08-27T19:15:48Z</time>
      </trkpt>
      <trkpt lat="44.36625" lon="1.44631">
        <ele>261</ele>
        <time>2024-08-27T19:17:47Z</time>
      </trkpt>
      <trkpt lat="44.36631" lon="1.44681">
        <ele>261</ele>
        <time>2024-08-27T19:18:35Z</time>
      </trkpt>
      <trkpt lat="44.36633" lon="1.44731">
        <ele>261</ele>
        <time>2024-08-27T19:19:23Z</time>
      </trkpt>
      <trkpt lat="44.36639" lon="1.44771">
        <ele>261</ele>
        <time>2024-08-27T19:20:02Z</time>
      </trkpt>
      <trkpt lat="44.36653" lon="1.44776">
        <ele>262</ele>
        <time>2024-08-27T19:20:21Z</time>
      </trkpt>
      <trkpt lat="44.36662" lon="1.44775">
        <ele>262</ele>
        <time>2024-08-27T19:20:33Z</time>
      </trkpt>
      <trkpt lat="44.36679" lon="1.44769">
        <ele>264</ele>
        <time>2024-08-27T19:20:56Z</time>
      </trkpt>
      <trkpt lat="44.36702" lon="1.44764">
        <ele>265</ele>
        <time>2024-08-27T19:21:27Z</time>
      </trkpt>
      <trkpt lat="44.36755" lon="1.44756">
        <ele>268</ele>
        <time>2024-08-27T19:22:39Z</time>
      </trkpt>
      <trkpt lat="44.3679" lon="1.44759">
        <ele>268</ele>
        <time>2024-08-27T19:23:25Z</time>
      </trkpt>
      <trkpt lat="44.36789" lon="1.44754">
        <ele>268</ele>
        <time>2024-08-27T19:23:30Z</time>
      </trkpt>
      <trkpt lat="44.36796" lon="1.44748">
        <ele>267</ele>
        <time>2024-08-27T19:23:41Z</time>
      </trkpt>
      <trkpt lat="44.36791" lon="1.44743">
        <ele>267</ele>
        <time>2024-08-27T19:23:49Z</time>
      </trkpt>
      <trkpt lat="44.36801" lon="1.44743">
        <ele>267</ele>
        <time>2024-08-27T19:24:03Z</time>
      </trkpt>
      <trkpt lat="44.36811" lon="1.44734">
        <ele>266</ele>
        <time>2024-08-27T19:24:19Z</time>
      </trkpt>
      <trkpt lat="44.36877" lon="1.4463">
        <ele>259</ele>
        <time>2024-08-27T19:26:31Z</time>
      </trkpt>
      <trkpt lat="44.369" lon="1.44598">
        <ele>257</ele>
        <time>2024-08-27T19:27:15Z</time>
      </trkpt>
      <trkpt lat="44.36934" lon="1.44565">
        <ele>257</ele>
        <time>2024-08-27T19:28:10Z</time>
      </trkpt>
      <trkpt lat="44.36971" lon="1.44536">
        <ele>259</ele>
        <time>2024-08-27T19:29:06Z</time>
      </trkpt>
      <trkpt lat="44.36981" lon="1.44525">
        <ele>259</ele>
        <time>2024-08-27T19:29:23Z</time>
      </trkpt>
      <trkpt lat="44.37" lon="1.44521">
        <ele>259</ele>
        <time>2024-08-27T19:29:49Z</time>
      </trkpt>
      <trkpt lat="44.37033" lon="1.44528">
        <ele>260</ele>
        <time>2024-08-27T19:30:34Z</time>
      </trkpt>
      <trkpt lat="44.37072" lon="1.4454">
        <ele>259</ele>
        <time>2024-08-27T19:31:27Z</time>
      </trkpt>
      <trkpt lat="44.37109" lon="1.44549">
        <ele>258</ele>
        <time>2024-08-27T19:32:17Z</time>
      </trkpt>
      <trkpt lat="44.3712" lon="1.44548">
        <ele>258</ele>
        <time>2024-08-27T19:32:32Z</time>
      </trkpt>
      <trkpt lat="44.37127" lon="1.44545">
        <ele>259</ele>
        <time>2024-08-27T19:32:41Z</time>
      </trkpt>
      <trkpt lat="44.37166" lon="1.44522">
        <ele>261</ele>
        <time>2024-08-27T19:33:38Z</time>
      </trkpt>
      <trkpt lat="44.37182" lon="1.4451">
        <ele>263</ele>
        <time>2024-08-27T19:34:02Z</time>
      </trkpt>
      <trkpt lat="44.37196" lon="1.44507">
        <ele>264</ele>
        <time>2024-08-27T19:34:21Z</time>
      </trkpt>
      <trkpt lat="44.37234" lon="1.44512">
        <ele>265</ele>
        <time>2024-08-27T19:35:12Z</time>
      </trkpt>
      <trkpt lat="44.37272" lon="1.44512">
        <ele>266</ele>
        <time>2024-08-27T19:36:03Z</time>
      </trkpt>
      <trkpt lat="44.37303" lon="1.44514">
        <ele>267</ele>
        <time>2024-08-27T19:36:44Z</time>
      </trkpt>
      <trkpt lat="44.37328" lon="1.4452">
        <ele>267</ele>
        <time>2024-08-27T19:37:18Z</time>
      </trkpt>
      <trkpt lat="44.37337" lon="1.4452">
        <ele>267</ele>
        <time>2024-08-27T19:37:30Z</time>
      </trkpt>
      <trkpt lat="44.37342" lon="1.44517">
        <ele>268</ele>
        <time>2024-08-27T19:37:37Z</time>
      </trkpt>
      <trkpt lat="44.37357" lon="1.44519">
        <ele>267</ele>
        <time>2024-08-27T19:37:57Z</time>
      </trkpt>
      <trkpt lat="44.37396" lon="1.44507">
        <ele>268</ele>
        <time>2024-08-27T19:38:51Z</time>
      </trkpt>
      <trkpt lat="44.37432" lon="1.44495">
        <ele>267</ele>
        <time>2024-08-27T19:39:40Z</time>
      </trkpt>
      <trkpt lat="44.37442" lon="1.44487">
        <ele>266</ele>
        <time>2024-08-27T19:39:55Z</time>
      </trkpt>
      <trkpt lat="44.37469" lon="1.44474">
        <ele>264</ele>
        <time>2024-08-27T19:40:34Z</time>
      </trkpt>
      <trkpt lat="44.37492" lon="1.44451">
        <ele>263</ele>
        <time>2024-08-27T19:41:11Z</time>
      </trkpt>
      <trkpt lat="44.37519" lon="1.44417">
        <ele>265</ele>
        <time>2024-08-27T19:42:00Z</time>
      </trkpt>
      <trkpt lat="44.37534" lon="1.44407">
        <ele>264</ele>
        <time>2024-08-27T19:42:22Z</time>
      </trkpt>
      <trkpt lat="44.37553" lon="1.44406">
        <ele>263</ele>
        <time>2024-08-27T19:42:47Z</time>
      </trkpt>
      <trkpt lat="44.37587" lon="1.44411">
        <ele>260</ele>
        <time>2024-08-27T19:43:33Z</time>
      </trkpt>
      <trkpt lat="44.37604" lon="1.44418">
        <ele>260</ele>
        <time>2024-08-27T19:43:57Z</time>
      </trkpt>
      <trkpt lat="44.37615" lon="1.44418">
        <ele>261</ele>
        <time>2024-08-27T19:44:11Z</time>
      </trkpt>
      <trkpt lat="44.37629" lon="1.44427">
        <ele>260</ele>
        <time>2024-08-27T19:44:32Z</time>
      </trkpt>
      <trkpt lat="44.37639" lon="1.44436">
        <ele>259</ele>
        <time>2024-08-27T19:44:48Z</time>
      </trkpt>
      <trkpt lat="44.37651" lon="1.44453">
        <ele>258</ele>
        <time>2024-08-27T19:45:10Z</time>
      </trkpt>
      <trkpt lat="44.37652" lon="1.44458">
        <ele>258</ele>
        <time>2024-08-27T19:45:15Z</time>
      </trkpt>
      <trkpt lat="44.37661" lon="1.44465">
        <ele>258</ele>
        <time>2024-08-27T19:45:29Z</time>
      </trkpt>
      <trkpt lat="44.37693" lon="1.44504">
        <ele>257</ele>
        <time>2024-08-27T19:46:26Z</time>
      </trkpt>
      <trkpt lat="44.37716" lon="1.44518">
        <ele>259</ele>
        <time>2024-08-27T19:46:59Z</time>
      </trkpt>
      <trkpt lat="44.37757" lon="1.44538">
        <ele>261</ele>
        <time>2024-08-27T19:47:57Z</time>
      </trkpt>
      <trkpt lat="44.37807" lon="1.44553">
        <ele>260</ele>
        <time>2024-08-27T19:49:05Z</time>
      </trkpt>
      <trkpt lat="44.37831" lon="1.44552">
        <ele>259</ele>
        <time>2024-08-27T19:49:37Z</time>
      </trkpt>
      <trkpt lat="44.37876" lon="1.44547">
        <ele>258</ele>
        <time>2024-08-27T19:50:38Z</time>
      </trkpt>
      <trkpt lat="44.37891" lon="1.44561">
        <ele>258</ele>
        <time>2024-08-27T19:51:02Z</time>
      </trkpt>
      <trkpt lat="44.37901" lon="1.44574">
        <ele>259</ele>
        <time>2024-08-27T19:51:20Z</time>
      </trkpt>
      <trkpt lat="44.37907" lon="1.44592">
        <ele>260</ele>
        <time>2024-08-27T19:51:39Z</time>
      </trkpt>
      <trkpt lat="44.37914" lon="1.44595">
        <ele>260</ele>
        <time>2024-08-27T19:51:49Z</time>
      </trkpt>
      <trkpt lat="44.3794" lon="1.44643">
        <ele>260</ele>
        <time>2024-08-27T19:52:46Z</time>
      </trkpt>
      <trkpt lat="44.37964" lon="1.44664">
        <ele>260</ele>
        <time>2024-08-27T19:53:24Z</time>
      </trkpt>
    </trkseg>
  </trk>
</gpx>